sensor_id;sensor_type;location;lat;lon;timestamp;P1;durP1;ratioP1;P2;durP2;ratioP2
25962;SDS011;13760;52.588;13.406;2022-07-10T00:00:34;10.18;;;1.80;;
25962;SDS011;13760;52.588;13.406;2022-07-10T00:03:01;6.45;;;1.95;;
25962;SDS011;13760;52.588;13.406;2022-07-10T00:05:27;6.65;;;1.70;;
25962;SDS011;13760;52.588;13.406;2022-07-10T00:07:53;9.98;;;1.75;;
25962;SDS011;13760;52.588;13.406;2022-07-10T00:10:20;5.88;;;1.42;;
25962;SDS011;13760;52.588;13.406;2022-07-10T00:12:46;5.82;;;1.75;;
25962;SDS011;13760;52.588;13.406;2022-07-10T00:15:13;8.27;;;2.05;;
25962;SDS011;13760;52.588;13.406;2022-07-10T00:17:40;8.43;;;1.70;;
25962;SDS011;13760;52.588;13.406;2022-07-10T00:20:07;10.05;;;1.67;;
25962;SDS011;13760;52.588;13.406;2022-07-10T00:22:33;6.43;;;1.50;;
25962;SDS011;13760;52.588;13.406;2022-07-10T00:25:00;8.30;;;1.60;;
25962;SDS011;13760;52.588;13.406;2022-07-10T00:27:27;10.10;;;1.60;;
25962;SDS011;13760;52.588;13.406;2022-07-10T00:29:52;8.20;;;1.90;;
25962;SDS011;13760;52.588;13.406;2022-07-10T00:32:18;9.48;;;1.90;;
25962;SDS011;13760;52.588;13.406;2022-07-10T00:34:44;9.80;;;1.60;;
25962;SDS011;13760;52.588;13.406;2022-07-10T00:37:09;6.78;;;1.48;;
25962;SDS011;13760;52.588;13.406;2022-07-10T00:39:35;8.57;;;1.90;;
25962;SDS011;13760;52.588;13.406;2022-07-10T00:42:11;8.32;;;1.33;;
25962;SDS011;13760;52.588;13.406;2022-07-10T00:44:38;7.60;;;1.50;;
25962;SDS011;13760;52.588;13.406;2022-07-10T00:47:05;5.30;;;1.58;;
25962;SDS011;13760;52.588;13.406;2022-07-10T00:49:32;6.47;;;1.42;;
25962;SDS011;13760;52.588;13.406;2022-07-10T00:51:59;9.10;;;1.65;;
25962;SDS011;13760;52.588;13.406;2022-07-10T00:54:28;6.93;;;1.30;;
25962;SDS011;13760;52.588;13.406;2022-07-10T00:56:55;6.88;;;1.35;;
25962;SDS011;13760;52.588;13.406;2022-07-10T00:59:22;6.95;;;1.40;;
25962;SDS011;13760;52.588;13.406;2022-07-10T01:01:49;5.20;;;1.27;;
25962;SDS011;13760;52.588;13.406;2022-07-10T01:04:15;9.07;;;1.48;;
25962;SDS011;13760;52.588;13.406;2022-07-10T01:06:41;8.30;;;1.65;;
25962;SDS011;13760;52.588;13.406;2022-07-10T01:09:07;10.93;;;1.77;;
25962;SDS011;13760;52.588;13.406;2022-07-10T01:11:33;8.45;;;1.33;;
25962;SDS011;13760;52.588;13.406;2022-07-10T01:13:59;5.47;;;1.25;;
25962;SDS011;13760;52.588;13.406;2022-07-10T01:16:25;6.75;;;1.30;;
25962;SDS011;13760;52.588;13.406;2022-07-10T01:18:51;8.90;;;1.48;;
25962;SDS011;13760;52.588;13.406;2022-07-10T01:21:30;6.20;;;1.30;;
25962;SDS011;13760;52.588;13.406;2022-07-10T01:23:57;8.63;;;1.60;;
25962;SDS011;13760;52.588;13.406;2022-07-10T01:26:24;10.50;;;1.98;;
25962;SDS011;13760;52.588;13.406;2022-07-10T01:28:51;6.28;;;1.40;;
25962;SDS011;13760;52.588;13.406;2022-07-10T01:31:18;5.50;;;1.58;;
25962;SDS011;13760;52.588;13.406;2022-07-10T01:33:45;6.15;;;1.48;;
25962;SDS011;13760;52.588;13.406;2022-07-10T01:36:11;7.03;;;1.52;;
25962;SDS011;13760;52.588;13.406;2022-07-10T01:38:39;5.93;;;1.42;;
25962;SDS011;13760;52.588;13.406;2022-07-10T01:41:05;8.20;;;1.23;;
25962;SDS011;13760;52.588;13.406;2022-07-10T01:43:34;7.88;;;1.50;;
25962;SDS011;13760;52.588;13.406;2022-07-10T01:46:01;7.57;;;1.20;;
25962;SDS011;13760;52.588;13.406;2022-07-10T01:48:27;6.97;;;1.40;;
25962;SDS011;13760;52.588;13.406;2022-07-10T01:50:53;6.95;;;1.40;;
25962;SDS011;13760;52.588;13.406;2022-07-10T01:53:18;7.45;;;1.48;;
25962;SDS011;13760;52.588;13.406;2022-07-10T01:55:44;9.32;;;1.75;;
25962;SDS011;13760;52.588;13.406;2022-07-10T01:58:10;7.05;;;1.30;;
25962;SDS011;13760;52.588;13.406;2022-07-10T02:00:35;5.72;;;1.23;;
25962;SDS011;13760;52.588;13.406;2022-07-10T02:03:01;5.18;;;1.30;;
25962;SDS011;13760;52.588;13.406;2022-07-10T02:05:45;3.60;;;0.98;;
25962;SDS011;13760;52.588;13.406;2022-07-10T02:08:10;3.70;;;1.00;;
25962;SDS011;13760;52.588;13.406;2022-07-10T02:10:38;5.97;;;0.90;;
25962;SDS011;13760;52.588;13.406;2022-07-10T02:13:05;5.43;;;1.23;;
25962;SDS011;13760;52.588;13.406;2022-07-10T02:15:41;5.45;;;1.13;;
25962;SDS011;13760;52.588;13.406;2022-07-10T02:18:27;4.25;;;1.13;;
25962;SDS011;13760;52.588;13.406;2022-07-10T02:20:54;5.45;;;1.25;;
25962;SDS011;13760;52.588;13.406;2022-07-10T02:23:22;6.70;;;1.35;;
25962;SDS011;13760;52.588;13.406;2022-07-10T02:25:47;5.13;;;1.30;;
25962;SDS011;13760;52.588;13.406;2022-07-10T02:28:13;4.07;;;0.93;;
25962;SDS011;13760;52.588;13.406;2022-07-10T02:30:38;5.60;;;1.27;;
25962;SDS011;13760;52.588;13.406;2022-07-10T02:33:04;7.57;;;1.23;;
25962;SDS011;13760;52.588;13.406;2022-07-10T02:35:29;4.50;;;1.02;;
25962;SDS011;13760;52.588;13.406;2022-07-10T02:37:56;7.63;;;1.33;;
25962;SDS011;13760;52.588;13.406;2022-07-10T02:40:21;7.15;;;1.48;;
25962;SDS011;13760;52.588;13.406;2022-07-10T02:42:47;4.45;;;1.02;;
25962;SDS011;13760;52.588;13.406;2022-07-10T02:45:12;4.82;;;0.95;;
25962;SDS011;13760;52.588;13.406;2022-07-10T02:47:38;5.85;;;1.20;;
25962;SDS011;13760;52.588;13.406;2022-07-10T02:50:04;7.30;;;1.27;;
25962;SDS011;13760;52.588;13.406;2022-07-10T02:52:29;7.10;;;1.20;;
25962;SDS011;13760;52.588;13.406;2022-07-10T02:54:55;5.80;;;1.13;;
25962;SDS011;13760;52.588;13.406;2022-07-10T02:57:21;4.95;;;0.93;;
25962;SDS011;13760;52.588;13.406;2022-07-10T02:59:47;3.83;;;0.88;;
25962;SDS011;13760;52.588;13.406;2022-07-10T03:02:13;7.60;;;1.10;;
25962;SDS011;13760;52.588;13.406;2022-07-10T03:04:40;7.55;;;1.08;;
25962;SDS011;13760;52.588;13.406;2022-07-10T03:07:05;7.30;;;1.25;;
25962;SDS011;13760;52.588;13.406;2022-07-10T03:09:31;5.38;;;1.17;;
25962;SDS011;13760;52.588;13.406;2022-07-10T03:11:56;3.88;;;0.90;;
25962;SDS011;13760;52.588;13.406;2022-07-10T03:14:22;4.50;;;1.00;;
25962;SDS011;13760;52.588;13.406;2022-07-10T03:16:48;4.30;;;0.95;;
25962;SDS011;13760;52.588;13.406;2022-07-10T03:19:13;7.68;;;1.40;;
25962;SDS011;13760;52.588;13.406;2022-07-10T03:21:39;8.07;;;1.70;;
25962;SDS011;13760;52.588;13.406;2022-07-10T03:24:04;4.30;;;1.00;;
25962;SDS011;13760;52.588;13.406;2022-07-10T03:26:30;4.15;;;1.00;;
25962;SDS011;13760;52.588;13.406;2022-07-10T03:28:56;9.32;;;1.20;;
25962;SDS011;13760;52.588;13.406;2022-07-10T03:31:22;6.15;;;1.15;;
25962;SDS011;13760;52.588;13.406;2022-07-10T03:33:48;5.88;;;1.27;;
25962;SDS011;13760;52.588;13.406;2022-07-10T03:36:14;5.85;;;1.17;;
25962;SDS011;13760;52.588;13.406;2022-07-10T03:38:39;5.13;;;1.20;;
25962;SDS011;13760;52.588;13.406;2022-07-10T03:41:05;11.68;;;1.52;;
25962;SDS011;13760;52.588;13.406;2022-07-10T03:43:31;5.75;;;1.20;;
25962;SDS011;13760;52.588;13.406;2022-07-10T03:45:59;4.60;;;1.13;;
25962;SDS011;13760;52.588;13.406;2022-07-10T03:48:26;5.65;;;1.13;;
25962;SDS011;13760;52.588;13.406;2022-07-10T03:50:52;4.88;;;1.00;;
25962;SDS011;13760;52.588;13.406;2022-07-10T03:53:18;9.23;;;1.55;;
25962;SDS011;13760;52.588;13.406;2022-07-10T03:55:44;3.90;;;1.08;;
25962;SDS011;13760;52.588;13.406;2022-07-10T03:58:09;5.18;;;1.02;;
25962;SDS011;13760;52.588;13.406;2022-07-10T04:00:35;7.65;;;1.17;;
25962;SDS011;13760;52.588;13.406;2022-07-10T04:03:05;7.60;;;1.35;;
25962;SDS011;13760;52.588;13.406;2022-07-10T04:05:31;5.85;;;1.27;;
25962;SDS011;13760;52.588;13.406;2022-07-10T04:07:58;8.85;;;1.55;;
25962;SDS011;13760;52.588;13.406;2022-07-10T04:10:25;7.15;;;1.20;;
25962;SDS011;13760;52.588;13.406;2022-07-10T04:12:52;6.03;;;1.10;;
25962;SDS011;13760;52.588;13.406;2022-07-10T04:15:18;3.53;;;1.00;;
25962;SDS011;13760;52.588;13.406;2022-07-10T04:17:44;4.57;;;1.00;;
25962;SDS011;13760;52.588;13.406;2022-07-10T04:20:11;7.05;;;1.38;;
25962;SDS011;13760;52.588;13.406;2022-07-10T04:22:36;6.43;;;1.20;;
25962;SDS011;13760;52.588;13.406;2022-07-10T04:25:02;5.60;;;1.00;;
25962;SDS011;13760;52.588;13.406;2022-07-10T04:27:29;5.28;;;1.23;;
25962;SDS011;13760;52.588;13.406;2022-07-10T04:29:55;7.63;;;1.50;;
25962;SDS011;13760;52.588;13.406;2022-07-10T04:32:21;7.47;;;1.45;;
25962;SDS011;13760;52.588;13.406;2022-07-10T04:34:46;6.80;;;1.20;;
25962;SDS011;13760;52.588;13.406;2022-07-10T04:37:12;5.32;;;1.50;;
25962;SDS011;13760;52.588;13.406;2022-07-10T04:39:40;6.82;;;1.20;;
25962;SDS011;13760;52.588;13.406;2022-07-10T04:42:09;7.32;;;1.40;;
25962;SDS011;13760;52.588;13.406;2022-07-10T04:44:35;6.78;;;1.52;;
25962;SDS011;13760;52.588;13.406;2022-07-10T04:47:01;8.43;;;1.25;;
25962;SDS011;13760;52.588;13.406;2022-07-10T04:49:30;5.03;;;1.20;;
25962;SDS011;13760;52.588;13.406;2022-07-10T04:51:56;8.20;;;1.50;;
25962;SDS011;13760;52.588;13.406;2022-07-10T04:54:37;7.60;;;1.20;;
25962;SDS011;13760;52.588;13.406;2022-07-10T04:57:02;8.52;;;1.67;;
25962;SDS011;13760;52.588;13.406;2022-07-10T04:59:28;7.05;;;1.50;;
25962;SDS011;13760;52.588;13.406;2022-07-10T05:01:54;9.52;;;1.50;;
25962;SDS011;13760;52.588;13.406;2022-07-10T05:04:19;11.18;;;1.55;;
25962;SDS011;13760;52.588;13.406;2022-07-10T05:06:45;8.63;;;1.58;;
25962;SDS011;13760;52.588;13.406;2022-07-10T05:09:11;10.65;;;1.60;;
25962;SDS011;13760;52.588;13.406;2022-07-10T05:11:36;5.22;;;1.55;;
25962;SDS011;13760;52.588;13.406;2022-07-10T05:14:02;6.13;;;1.23;;
25962;SDS011;13760;52.588;13.406;2022-07-10T05:16:27;10.27;;;1.30;;
25962;SDS011;13760;52.588;13.406;2022-07-10T05:18:53;6.82;;;1.50;;
25962;SDS011;13760;52.588;13.406;2022-07-10T05:21:19;4.90;;;1.33;;
25962;SDS011;13760;52.588;13.406;2022-07-10T05:23:44;6.57;;;1.30;;
25962;SDS011;13760;52.588;13.406;2022-07-10T05:26:10;4.22;;;1.10;;
25962;SDS011;13760;52.588;13.406;2022-07-10T05:28:35;6.05;;;1.30;;
25962;SDS011;13760;52.588;13.406;2022-07-10T05:31:01;9.80;;;1.92;;
25962;SDS011;13760;52.588;13.406;2022-07-10T05:33:27;6.70;;;1.60;;
25962;SDS011;13760;52.588;13.406;2022-07-10T05:35:55;11.88;;;1.55;;
25962;SDS011;13760;52.588;13.406;2022-07-10T05:38:21;7.70;;;2.03;;
25962;SDS011;13760;52.588;13.406;2022-07-10T05:40:47;8.95;;;1.95;;
25962;SDS011;13760;52.588;13.406;2022-07-10T05:43:13;7.25;;;1.60;;
25962;SDS011;13760;52.588;13.406;2022-07-10T05:48:34;7.57;;;1.83;;
25962;SDS011;13760;52.588;13.406;2022-07-10T05:51:00;6.80;;;1.33;;
25962;SDS011;13760;52.588;13.406;2022-07-10T05:53:26;9.95;;;2.00;;
25962;SDS011;13760;52.588;13.406;2022-07-10T05:55:52;10.35;;;1.83;;
25962;SDS011;13760;52.588;13.406;2022-07-10T05:58:17;6.13;;;1.40;;
25962;SDS011;13760;52.588;13.406;2022-07-10T06:00:43;7.80;;;1.90;;
25962;SDS011;13760;52.588;13.406;2022-07-10T06:03:10;5.80;;;1.70;;
25962;SDS011;13760;52.588;13.406;2022-07-10T06:05:36;8.70;;;2.17;;
25962;SDS011;13760;52.588;13.406;2022-07-10T06:08:02;7.60;;;1.52;;
25962;SDS011;13760;52.588;13.406;2022-07-10T06:10:35;12.43;;;1.98;;
25962;SDS011;13760;52.588;13.406;2022-07-10T06:13:01;9.00;;;1.77;;
25962;SDS011;13760;52.588;13.406;2022-07-10T06:15:26;7.15;;;1.50;;
25962;SDS011;13760;52.588;13.406;2022-07-10T06:17:53;9.15;;;2.00;;
25962;SDS011;13760;52.588;13.406;2022-07-10T06:20:21;10.77;;;1.80;;
25962;SDS011;13760;52.588;13.406;2022-07-10T06:22:47;5.18;;;1.40;;
25962;SDS011;13760;52.588;13.406;2022-07-10T06:25:19;11.07;;;2.03;;
25962;SDS011;13760;52.588;13.406;2022-07-10T06:27:44;12.25;;;1.90;;
25962;SDS011;13760;52.588;13.406;2022-07-10T06:30:10;10.15;;;2.00;;
25962;SDS011;13760;52.588;13.406;2022-07-10T06:32:36;10.88;;;1.80;;
25962;SDS011;13760;52.588;13.406;2022-07-10T06:35:02;9.48;;;2.13;;
25962;SDS011;13760;52.588;13.406;2022-07-10T06:37:29;7.18;;;1.83;;
25962;SDS011;13760;52.588;13.406;2022-07-10T06:39:55;8.95;;;1.83;;
25962;SDS011;13760;52.588;13.406;2022-07-10T06:42:21;12.45;;;2.05;;
25962;SDS011;13760;52.588;13.406;2022-07-10T06:44:47;10.20;;;1.70;;
25962;SDS011;13760;52.588;13.406;2022-07-10T06:47:13;8.77;;;1.77;;
25962;SDS011;13760;52.588;13.406;2022-07-10T06:50:00;14.50;;;2.00;;
25962;SDS011;13760;52.588;13.406;2022-07-10T06:52:31;7.90;;;1.88;;
25962;SDS011;13760;52.588;13.406;2022-07-10T06:54:58;10.60;;;1.60;;
25962;SDS011;13760;52.588;13.406;2022-07-10T06:57:25;9.02;;;1.73;;
25962;SDS011;13760;52.588;13.406;2022-07-10T06:59:51;11.10;;;1.92;;
25962;SDS011;13760;52.588;13.406;2022-07-10T07:02:17;11.40;;;2.00;;
25962;SDS011;13760;52.588;13.406;2022-07-10T07:04:43;9.35;;;2.10;;
25962;SDS011;13760;52.588;13.406;2022-07-10T07:10:30;10.07;;;2.10;;
25962;SDS011;13760;52.588;13.406;2022-07-10T07:12:58;12.77;;;1.95;;
25962;SDS011;13760;52.588;13.406;2022-07-10T07:18:37;9.70;;;1.90;;
25962;SDS011;13760;52.588;13.406;2022-07-10T07:21:12;8.45;;;1.70;;
25962;SDS011;13760;52.588;13.406;2022-07-10T07:23:56;10.00;;;1.90;;
25962;SDS011;13760;52.588;13.406;2022-07-10T07:26:31;7.68;;;1.60;;
25962;SDS011;13760;52.588;13.406;2022-07-10T07:29:17;9.65;;;2.42;;
25962;SDS011;13760;52.588;13.406;2022-07-10T07:31:49;10.70;;;1.85;;
25962;SDS011;13760;52.588;13.406;2022-07-10T07:34:14;7.00;;;1.55;;
25962;SDS011;13760;52.588;13.406;2022-07-10T07:36:40;11.20;;;2.22;;
25962;SDS011;13760;52.588;13.406;2022-07-10T07:39:06;7.05;;;1.67;;
25962;SDS011;13760;52.588;13.406;2022-07-10T07:41:35;13.10;;;1.88;;
25962;SDS011;13760;52.588;13.406;2022-07-10T07:44:09;10.85;;;2.08;;
25962;SDS011;13760;52.588;13.406;2022-07-10T07:46:48;15.70;;;2.05;;
25962;SDS011;13760;52.588;13.406;2022-07-10T07:49:14;13.02;;;2.10;;
25962;SDS011;13760;52.588;13.406;2022-07-10T07:51:45;9.68;;;1.90;;
25962;SDS011;13760;52.588;13.406;2022-07-10T07:54:24;8.50;;;2.08;;
25962;SDS011;13760;52.588;13.406;2022-07-10T07:56:50;11.95;;;2.63;;
25962;SDS011;13760;52.588;13.406;2022-07-10T07:59:19;8.38;;;1.88;;
25962;SDS011;13760;52.588;13.406;2022-07-10T08:01:44;10.30;;;1.73;;
25962;SDS011;13760;52.588;13.406;2022-07-10T08:04:10;10.85;;;1.85;;
25962;SDS011;13760;52.588;13.406;2022-07-10T08:06:36;6.63;;;1.60;;
25962;SDS011;13760;52.588;13.406;2022-07-10T08:09:02;11.35;;;2.45;;
25962;SDS011;13760;52.588;13.406;2022-07-10T08:11:27;8.25;;;2.22;;
25962;SDS011;13760;52.588;13.406;2022-07-10T08:13:53;7.97;;;2.10;;
25962;SDS011;13760;52.588;13.406;2022-07-10T08:16:21;9.05;;;2.00;;
25962;SDS011;13760;52.588;13.406;2022-07-10T08:18:47;8.07;;;1.80;;
25962;SDS011;13760;52.588;13.406;2022-07-10T08:21:31;9.05;;;1.55;;
25962;SDS011;13760;52.588;13.406;2022-07-10T08:24:03;6.55;;;1.60;;
25962;SDS011;13760;52.588;13.406;2022-07-10T08:26:32;7.90;;;1.63;;
25962;SDS011;13760;52.588;13.406;2022-07-10T08:29:05;11.10;;;1.92;;
25962;SDS011;13760;52.588;13.406;2022-07-10T08:31:37;6.25;;;1.52;;
25962;SDS011;13760;52.588;13.406;2022-07-10T08:34:17;9.75;;;2.03;;
25962;SDS011;13760;52.588;13.406;2022-07-10T08:36:43;8.60;;;1.80;;
25962;SDS011;13760;52.588;13.406;2022-07-10T08:39:08;11.02;;;2.05;;
25962;SDS011;13760;52.588;13.406;2022-07-10T08:41:37;9.27;;;1.80;;
25962;SDS011;13760;52.588;13.406;2022-07-10T08:44:07;7.43;;;1.63;;
25962;SDS011;13760;52.588;13.406;2022-07-10T08:46:33;5.70;;;1.63;;
25962;SDS011;13760;52.588;13.406;2022-07-10T08:49:00;9.68;;;1.75;;
25962;SDS011;13760;52.588;13.406;2022-07-10T08:51:41;13.23;;;1.95;;
25962;SDS011;13760;52.588;13.406;2022-07-10T08:54:13;9.43;;;1.85;;
25962;SDS011;13760;52.588;13.406;2022-07-10T08:56:44;7.45;;;1.70;;
25962;SDS011;13760;52.588;13.406;2022-07-10T08:59:21;8.05;;;1.67;;
25962;SDS011;13760;52.588;13.406;2022-07-10T09:01:50;5.90;;;1.42;;
25962;SDS011;13760;52.588;13.406;2022-07-10T09:04:18;7.85;;;1.42;;
25962;SDS011;13760;52.588;13.406;2022-07-10T09:06:50;5.95;;;1.40;;
25962;SDS011;13760;52.588;13.406;2022-07-10T09:11:57;8.88;;;1.58;;
25962;SDS011;13760;52.588;13.406;2022-07-10T09:14:25;12.25;;;1.83;;
25962;SDS011;13760;52.588;13.406;2022-07-10T09:16:52;9.32;;;2.17;;
25962;SDS011;13760;52.588;13.406;2022-07-10T09:21:45;9.20;;;1.70;;
25962;SDS011;13760;52.588;13.406;2022-07-10T09:24:12;11.93;;;2.25;;
25962;SDS011;13760;52.588;13.406;2022-07-10T09:26:38;8.23;;;1.95;;
25962;SDS011;13760;52.588;13.406;2022-07-10T09:29:11;12.38;;;2.00;;
25962;SDS011;13760;52.588;13.406;2022-07-10T09:31:53;9.15;;;1.45;;
25962;SDS011;13760;52.588;13.406;2022-07-10T09:37:25;5.85;;;1.60;;
25962;SDS011;13760;52.588;13.406;2022-07-10T09:40:06;6.90;;;1.42;;
25962;SDS011;13760;52.588;13.406;2022-07-10T09:42:42;7.38;;;1.52;;
25962;SDS011;13760;52.588;13.406;2022-07-10T09:45:23;7.80;;;1.85;;
25962;SDS011;13760;52.588;13.406;2022-07-10T09:47:56;8.02;;;1.80;;
25962;SDS011;13760;52.588;13.406;2022-07-10T09:50:51;8.77;;;1.95;;
25962;SDS011;13760;52.588;13.406;2022-07-10T09:53:20;8.10;;;2.13;;
25962;SDS011;13760;52.588;13.406;2022-07-10T09:58:52;7.75;;;2.13;;
25962;SDS011;13760;52.588;13.406;2022-07-10T10:01:23;8.18;;;1.92;;
25962;SDS011;13760;52.588;13.406;2022-07-10T10:04:27;8.77;;;2.40;;
25962;SDS011;13760;52.588;13.406;2022-07-10T10:07:05;8.75;;;2.03;;
25962;SDS011;13760;52.588;13.406;2022-07-10T10:09:41;7.47;;;1.70;;
25962;SDS011;13760;52.588;13.406;2022-07-10T10:12:58;10.27;;;1.77;;
25962;SDS011;13760;52.588;13.406;2022-07-10T10:15:37;8.63;;;2.00;;
25962;SDS011;13760;52.588;13.406;2022-07-10T10:20:49;8.02;;;2.00;;
25962;SDS011;13760;52.588;13.406;2022-07-10T10:23:17;8.25;;;1.55;;
25962;SDS011;13760;52.588;13.406;2022-07-10T10:29:05;10.25;;;2.08;;
25962;SDS011;13760;52.588;13.406;2022-07-10T10:31:50;7.90;;;1.75;;
25962;SDS011;13760;52.588;13.406;2022-07-10T10:34:45;8.07;;;1.90;;
25962;SDS011;13760;52.588;13.406;2022-07-10T10:37:47;10.98;;;1.73;;
25962;SDS011;13760;52.588;13.406;2022-07-10T10:47:16;9.38;;;1.90;;
25962;SDS011;13760;52.588;13.406;2022-07-10T10:53:03;7.55;;;1.73;;
25962;SDS011;13760;52.588;13.406;2022-07-10T10:55:34;7.13;;;1.15;;
25962;SDS011;13760;52.588;13.406;2022-07-10T11:00:49;7.07;;;1.80;;
25962;SDS011;13760;52.588;13.406;2022-07-10T11:03:25;11.30;;;2.03;;
25962;SDS011;13760;52.588;13.406;2022-07-10T11:05:53;6.45;;;1.60;;
25962;SDS011;13760;52.588;13.406;2022-07-10T11:08:35;8.82;;;1.90;;
25962;SDS011;13760;52.588;13.406;2022-07-10T11:14:08;9.88;;;1.80;;
25962;SDS011;13760;52.588;13.406;2022-07-10T11:20:09;11.88;;;2.38;;
25962;SDS011;13760;52.588;13.406;2022-07-10T11:28:54;9.40;;;1.90;;
25962;SDS011;13760;52.588;13.406;2022-07-10T11:31:27;10.98;;;1.80;;
25962;SDS011;13760;52.588;13.406;2022-07-10T11:34:51;11.60;;;2.47;;
25962;SDS011;13760;52.588;13.406;2022-07-10T11:37:28;8.90;;;1.50;;
25962;SDS011;13760;52.588;13.406;2022-07-10T11:40:09;5.63;;;1.42;;
25962;SDS011;13760;52.588;13.406;2022-07-10T11:42:52;7.38;;;1.83;;
25962;SDS011;13760;52.588;13.406;2022-07-10T11:48:39;6.63;;;1.50;;
25962;SDS011;13760;52.588;13.406;2022-07-10T11:51:15;5.97;;;1.58;;
25962;SDS011;13760;52.588;13.406;2022-07-10T11:53:41;8.88;;;1.58;;
25962;SDS011;13760;52.588;13.406;2022-07-10T11:56:21;9.02;;;1.70;;
25962;SDS011;13760;52.588;13.406;2022-07-10T11:58:54;8.07;;;1.90;;
25962;SDS011;13760;52.588;13.406;2022-07-10T12:01:23;7.85;;;2.25;;
25962;SDS011;13760;52.588;13.406;2022-07-10T12:03:56;10.80;;;2.08;;
25962;SDS011;13760;52.588;13.406;2022-07-10T12:06:29;9.70;;;2.10;;
25962;SDS011;13760;52.588;13.406;2022-07-10T12:08:56;7.07;;;1.80;;
25962;SDS011;13760;52.588;13.406;2022-07-10T12:11:28;8.43;;;2.08;;
25962;SDS011;13760;52.588;13.406;2022-07-10T12:13:54;9.20;;;1.80;;
25962;SDS011;13760;52.588;13.406;2022-07-10T12:16:35;10.00;;;1.87;;
25962;SDS011;13760;52.588;13.406;2022-07-10T12:19:01;9.15;;;1.85;;
25962;SDS011;13760;52.588;13.406;2022-07-10T12:21:27;7.97;;;1.88;;
25962;SDS011;13760;52.588;13.406;2022-07-10T12:23:54;8.20;;;1.60;;
25962;SDS011;13760;52.588;13.406;2022-07-10T12:26:21;7.40;;;1.70;;
25962;SDS011;13760;52.588;13.406;2022-07-10T12:28:50;7.25;;;1.60;;
25962;SDS011;13760;52.588;13.406;2022-07-10T12:31:22;9.38;;;1.92;;
25962;SDS011;13760;52.588;13.406;2022-07-10T12:36:45;8.15;;;1.88;;
25962;SDS011;13760;52.588;13.406;2022-07-10T12:39:27;10.85;;;2.22;;
25962;SDS011;13760;52.588;13.406;2022-07-10T12:42:00;8.35;;;1.90;;
25962;SDS011;13760;52.588;13.406;2022-07-10T12:46:20;9.65;;;1.80;;
25962;SDS011;13760;52.588;13.406;2022-07-10T12:47:45;6.88;;;1.95;;
25962;SDS011;13760;52.588;13.406;2022-07-10T12:50:16;6.90;;;1.73;;
25962;SDS011;13760;52.588;13.406;2022-07-10T12:52:49;6.82;;;1.60;;
25962;SDS011;13760;52.588;13.406;2022-07-10T12:55:39;9.70;;;1.70;;
25962;SDS011;13760;52.588;13.406;2022-07-10T12:58:12;9.10;;;1.80;;
25962;SDS011;13760;52.588;13.406;2022-07-10T13:00:43;8.82;;;1.70;;
25962;SDS011;13760;52.588;13.406;2022-07-10T13:03:25;6.32;;;1.40;;
25962;SDS011;13760;52.588;13.406;2022-07-10T13:06:07;8.60;;;1.55;;
25962;SDS011;13760;52.588;13.406;2022-07-10T13:11:57;7.55;;;1.60;;
25962;SDS011;13760;52.588;13.406;2022-07-10T13:18:15;9.75;;;1.38;;
25962;SDS011;13760;52.588;13.406;2022-07-10T13:20:43;9.65;;;1.83;;
25962;SDS011;13760;52.588;13.406;2022-07-10T13:23:09;11.43;;;1.88;;
25962;SDS011;13760;52.588;13.406;2022-07-10T13:25:36;5.97;;;1.55;;
25962;SDS011;13760;52.588;13.406;2022-07-10T13:28:06;4.67;;;1.33;;
25962;SDS011;13760;52.588;13.406;2022-07-10T13:30:36;9.98;;;1.90;;
25962;SDS011;13760;52.588;13.406;2022-07-10T13:33:12;8.38;;;1.35;;
25962;SDS011;13760;52.588;13.406;2022-07-10T13:35:40;8.20;;;1.67;;
25962;SDS011;13760;52.588;13.406;2022-07-10T13:38:06;4.75;;;1.45;;
25962;SDS011;13760;52.588;13.406;2022-07-10T13:40:36;6.88;;;1.50;;
25962;SDS011;13760;52.588;13.406;2022-07-10T13:43:08;6.00;;;1.70;;
25962;SDS011;13760;52.588;13.406;2022-07-10T13:45:41;5.20;;;1.30;;
25962;SDS011;13760;52.588;13.406;2022-07-10T13:51:05;8.63;;;1.70;;
25962;SDS011;13760;52.588;13.406;2022-07-10T13:53:42;8.48;;;1.77;;
25962;SDS011;13760;52.588;13.406;2022-07-10T13:56:14;10.00;;;1.90;;
25962;SDS011;13760;52.588;13.406;2022-07-10T13:58:48;5.38;;;1.20;;
25962;SDS011;13760;52.588;13.406;2022-07-10T14:01:21;6.70;;;1.63;;
25962;SDS011;13760;52.588;13.406;2022-07-10T14:03:54;5.05;;;1.45;;
25962;SDS011;13760;52.588;13.406;2022-07-10T14:06:23;6.40;;;1.30;;
25962;SDS011;13760;52.588;13.406;2022-07-10T14:08:51;7.40;;;1.63;;
25962;SDS011;13760;52.588;13.406;2022-07-10T14:11:40;3.85;;;1.38;;
25962;SDS011;13760;52.588;13.406;2022-07-10T14:14:09;7.38;;;1.65;;
25962;SDS011;13760;52.588;13.406;2022-07-10T14:16:37;6.28;;;1.65;;
25962;SDS011;13760;52.588;13.406;2022-07-10T14:19:02;5.55;;;1.10;;
25962;SDS011;13760;52.588;13.406;2022-07-10T14:21:28;7.03;;;1.48;;
25962;SDS011;13760;52.588;13.406;2022-07-10T14:23:54;6.75;;;1.65;;
25962;SDS011;13760;52.588;13.406;2022-07-10T14:26:21;7.15;;;1.30;;
25962;SDS011;13760;52.588;13.406;2022-07-10T14:28:48;6.40;;;1.42;;
25962;SDS011;13760;52.588;13.406;2022-07-10T14:31:13;6.55;;;1.60;;
25962;SDS011;13760;52.588;13.406;2022-07-10T14:33:42;7.93;;;1.40;;
25962;SDS011;13760;52.588;13.406;2022-07-10T14:36:20;7.53;;;1.52;;
25962;SDS011;13760;52.588;13.406;2022-07-10T14:38:51;5.28;;;1.40;;
25962;SDS011;13760;52.588;13.406;2022-07-10T14:41:24;5.18;;;1.40;;
25962;SDS011;13760;52.588;13.406;2022-07-10T14:43:52;5.68;;;1.40;;
25962;SDS011;13760;52.588;13.406;2022-07-10T14:46:19;4.13;;;1.13;;
25962;SDS011;13760;52.588;13.406;2022-07-10T14:48:55;3.80;;;1.00;;
25962;SDS011;13760;52.588;13.406;2022-07-10T14:51:20;5.35;;;1.50;;
25962;SDS011;13760;52.588;13.406;2022-07-10T14:53:46;4.95;;;1.25;;
25962;SDS011;13760;52.588;13.406;2022-07-10T14:56:13;6.68;;;1.60;;
25962;SDS011;13760;52.588;13.406;2022-07-10T14:58:41;4.38;;;1.38;;
25962;SDS011;13760;52.588;13.406;2022-07-10T15:01:07;6.75;;;1.70;;
25962;SDS011;13760;52.588;13.406;2022-07-10T15:03:33;6.88;;;1.50;;
25962;SDS011;13760;52.588;13.406;2022-07-10T15:05:58;5.10;;;1.15;;
25962;SDS011;13760;52.588;13.406;2022-07-10T15:08:24;5.78;;;1.23;;
25962;SDS011;13760;52.588;13.406;2022-07-10T15:10:50;5.57;;;1.35;;
25962;SDS011;13760;52.588;13.406;2022-07-10T15:13:16;4.43;;;1.27;;
25962;SDS011;13760;52.588;13.406;2022-07-10T15:15:45;8.15;;;1.50;;
25962;SDS011;13760;52.588;13.406;2022-07-10T15:18:13;5.45;;;1.50;;
25962;SDS011;13760;52.588;13.406;2022-07-10T15:20:39;5.80;;;1.60;;
25962;SDS011;13760;52.588;13.406;2022-07-10T15:23:04;6.57;;;1.42;;
25962;SDS011;13760;52.588;13.406;2022-07-10T15:25:30;7.05;;;1.25;;
25962;SDS011;13760;52.588;13.406;2022-07-10T15:27:55;6.22;;;1.48;;
25962;SDS011;13760;52.588;13.406;2022-07-10T15:30:21;5.00;;;1.30;;
25962;SDS011;13760;52.588;13.406;2022-07-10T15:32:50;5.05;;;1.30;;
25962;SDS011;13760;52.588;13.406;2022-07-10T15:35:19;7.35;;;1.63;;
25962;SDS011;13760;52.588;13.406;2022-07-10T15:37:51;7.78;;;1.48;;
25962;SDS011;13760;52.588;13.406;2022-07-10T15:40:18;6.40;;;1.35;;
25962;SDS011;13760;52.588;13.406;2022-07-10T15:42:46;4.78;;;1.58;;
25962;SDS011;13760;52.588;13.406;2022-07-10T15:45:13;5.15;;;1.30;;
25962;SDS011;13760;52.588;13.406;2022-07-10T15:47:47;4.53;;;1.38;;
25962;SDS011;13760;52.588;13.406;2022-07-10T15:50:23;5.40;;;1.30;;
25962;SDS011;13760;52.588;13.406;2022-07-10T15:52:59;5.60;;;1.55;;
25962;SDS011;13760;52.588;13.406;2022-07-10T15:55:28;7.32;;;1.50;;